createdAt,value
2023-02-19T00:04:30.822Z,86.38
2023-02-19T00:09:32.791Z,86.63
2023-02-19T00:14:34.685Z,86.95
2023-02-19T00:19:36.609Z,86.66
2023-02-19T00:24:38.588Z,86.54
2023-02-19T00:29:40.536Z,86.89
2023-02-19T00:34:42.420Z,86.44
2023-02-19T00:39:44.345Z,87.35
2023-02-19T00:44:46.252Z,87.11
2023-02-19T00:49:48.198Z,87.56
2023-02-19T00:54:50.093Z,87.51
2023-02-19T00:59:52.046Z,87.51
2023-02-19T01:04:53.993Z,87.47
2023-02-19T01:09:55.900Z,86.85
2023-02-19T01:14:58.290Z,86.73
2023-02-19T01:19:59.954Z,87.50
2023-02-19T01:25:01.894Z,87.05
2023-02-19T01:30:05.665Z,87.59
2023-02-19T01:35:07.761Z,89.03
2023-02-19T01:40:09.904Z,88.85
2023-02-19T01:45:37.499Z,87.44
2023-02-19T01:50:44.547Z,87.33
2023-02-19T01:55:47.091Z,88.07
2023-02-19T02:00:49.040Z,87.70
2023-02-19T02:06:12.036Z,88.06
2023-02-19T02:11:13.918Z,88.59
2023-02-19T02:16:28.204Z,88.69
2023-02-19T02:21:36.620Z,87.98
2023-02-19T02:27:15.310Z,88.20
2023-02-19T02:32:21.632Z,88.25
2023-02-19T02:37:24.380Z,88.52
2023-02-19T02:42:26.337Z,88.45
2023-02-19T02:47:28.579Z,88.67
2023-02-19T02:52:30.630Z,88.75
2023-02-19T02:57:32.580Z,89.82
2023-02-19T03:02:34.635Z,90.40
2023-02-19T03:07:45.267Z,90.28
2023-02-19T03:12:47.157Z,90.19
2023-02-19T03:17:53.116Z,90.32
2023-02-19T03:22:55.047Z,90.44
2023-02-19T03:27:58.255Z,90.91
2023-02-19T03:33:16.140Z,91.20
2023-02-19T03:38:37.010Z,91.35
2023-02-19T03:44:04.930Z,91.78
2023-02-19T03:49:33.083Z,91.07
2023-02-19T03:54:38.288Z,91.25
2023-02-19T03:59:56.407Z,91.12
2023-02-19T04:05:14.201Z,90.89
2023-02-19T04:10:18.750Z,91.00
2023-02-19T04:15:23.502Z,91.06
2023-02-19T04:20:26.730Z,91.80
2023-02-19T04:25:28.824Z,92.07
2023-02-19T04:30:30.835Z,92.07
2023-02-19T04:35:32.906Z,91.97
2023-02-19T04:40:34.845Z,91.76
2023-02-19T04:45:39.911Z,91.64
2023-02-19T04:50:42.089Z,91.74
2023-02-19T04:55:44.053Z,91.37
2023-02-19T05:00:46.417Z,91.38
2023-02-19T05:05:48.326Z,92.04
2023-02-19T05:10:50.155Z,92.22
2023-02-19T05:15:59.445Z,92.76
2023-02-19T05:21:01.919Z,93.39
2023-02-19T05:26:13.139Z,92.45
2023-02-19T05:31:15.359Z,92.37
2023-02-19T05:36:17.932Z,92.71
2023-02-19T05:41:22.248Z,92.71
2023-02-19T05:46:25.697Z,92.86
2023-02-19T05:51:27.644Z,92.40
2023-02-19T05:56:37.121Z,91.96
2023-02-19T06:01:39.008Z,91.38
2023-02-19T06:06:40.925Z,91.02
2023-02-19T06:11:43.149Z,89.15
2023-02-19T06:16:45.101Z,89.11
2023-02-19T06:21:46.929Z,88.46
2023-02-19T06:26:48.825Z,87.75
2023-02-19T06:31:51.052Z,88.67
2023-02-19T06:36:52.926Z,89.09
2023-02-19T06:41:58.209Z,88.72
2023-02-19T06:47:00.097Z,88.02
2023-02-19T06:52:01.952Z,87.48
2023-02-19T06:57:03.839Z,86.09
2023-02-19T07:02:06.051Z,87.02
2023-02-19T07:07:11.247Z,86.13
2023-02-19T07:12:13.114Z,85.74
2023-02-19T07:17:14.982Z,84.58
2023-02-19T07:22:18.167Z,84.43
2023-02-19T07:27:20.074Z,84.88
2023-02-19T07:32:22.005Z,83.84
2023-02-19T07:37:23.799Z,83.46
2023-02-19T07:42:25.605Z,84.69
2023-02-19T07:47:29.413Z,83.93
2023-02-19T07:52:31.294Z,84.57
2023-02-19T07:57:33.235Z,83.99
2023-02-19T08:02:35.116Z,82.80
2023-02-19T08:07:37.105Z,82.04
2023-02-19T08:12:38.980Z,82.55
2023-02-19T08:17:40.853Z,81.70
2023-02-19T08:22:42.746Z,82.03
2023-02-19T08:27:44.574Z,79.69
2023-02-19T08:32:46.465Z,81.06
2023-02-19T08:37:48.385Z,80.71
2023-02-19T08:42:50.362Z,80.91
2023-02-19T08:47:52.238Z,80.16
2023-02-19T08:52:54.184Z,79.58
2023-02-19T08:57:56.076Z,78.37
2023-02-19T09:02:58.503Z,77.35
2023-02-19T09:08:00.369Z,78.02
2023-02-19T09:13:02.235Z,79.51
2023-02-19T09:18:04.288Z,79.58
2023-02-19T09:23:06.195Z,78.52
2023-02-19T09:28:07.992Z,77.94
2023-02-19T09:33:09.864Z,79.09
2023-02-19T09:38:11.857Z,78.82
2023-02-19T09:43:16.986Z,79.88
2023-02-19T09:48:18.863Z,78.01
2023-02-19T09:53:25.451Z,79.24
2023-02-19T09:58:57.279Z,78.71
2023-02-19T10:03:59.116Z,80.23
2023-02-19T10:09:13.852Z,79.69
2023-02-19T10:14:41.828Z,78.38
2023-02-19T10:19:43.698Z,77.21
2023-02-19T10:24:45.572Z,77.23
2023-02-19T10:29:49.222Z,78.02
2023-02-19T10:35:10.732Z,77.69
2023-02-19T10:40:20.150Z,77.63
2023-02-19T10:45:23.692Z,76.36
2023-02-19T10:50:36.530Z,75.95
2023-02-19T10:55:38.533Z,76.29
2023-02-19T11:00:40.434Z,75.79
2023-02-19T11:05:51.562Z,75.44
2023-02-19T11:10:53.340Z,75.06
2023-02-19T11:15:55.895Z,74.70
2023-02-19T11:20:59.615Z,75.77
2023-02-19T11:26:03.863Z,75.63
2023-02-19T11:31:25.397Z,74.50
2023-02-19T11:36:34.784Z,75.00
2023-02-19T11:41:53.870Z,74.77
2023-02-19T11:47:14.494Z,76.02
2023-02-19T11:52:34.859Z,75.65
2023-02-19T11:57:46.324Z,76.80
2023-02-19T12:03:17.580Z,75.96
2023-02-19T12:08:40.493Z,75.63
2023-02-19T12:13:42.169Z,74.89
2023-02-19T12:19:04.726Z,75.08
2023-02-19T12:24:44.551Z,74.98
2023-02-19T12:29:49.153Z,75.71
2023-02-19T12:35:23.712Z,75.97
2023-02-19T12:41:15.741Z,75.83
2023-02-19T12:46:20.877Z,76.30
2023-02-19T12:51:24.210Z,77.67
2023-02-19T12:56:29.804Z,78.77
2023-02-19T13:01:39.308Z,79.84
2023-02-19T13:06:50.482Z,80.95
2023-02-19T13:12:02.376Z,81.30
2023-02-19T13:17:25.065Z,80.71
2023-02-19T13:22:38.034Z,79.98
2023-02-19T13:27:50.141Z,79.51
2023-02-19T13:33:16.732Z,80.20
2023-02-19T13:38:18.556Z,79.60
2023-02-19T13:43:25.761Z,79.62
2023-02-19T13:48:35.519Z,80.49
2023-02-19T13:53:43.031Z,81.59
2023-02-19T13:59:12.630Z,81.84
2023-02-19T14:04:20.132Z,82.11
2023-02-19T14:09:48.211Z,82.75
2023-02-19T14:14:55.811Z,82.86
2023-02-19T14:19:58.466Z,82.31
2023-02-19T14:25:00.253Z,82.15
2023-02-19T14:30:02.300Z,82.82
2023-02-19T14:35:05.963Z,83.79
2023-02-19T14:40:10.586Z,84.44
2023-02-19T14:45:14.178Z,84.60
2023-02-19T14:50:36.230Z,84.78
2023-02-19T14:55:38.441Z,84.35
2023-02-19T15:00:41.211Z,84.15
2023-02-19T15:05:43.156Z,84.49
2023-02-19T15:10:45.046Z,85.58
2023-02-19T15:15:47.567Z,86.04
2023-02-19T15:20:49.795Z,86.56
2023-02-19T15:25:53.102Z,87.09
2023-02-19T15:30:58.037Z,86.93
2023-02-19T15:36:01.872Z,87.58
2023-02-19T15:41:04.294Z,87.87
2023-02-19T15:46:14.972Z,86.92
2023-02-19T15:51:25.828Z,87.21
2023-02-19T15:56:32.128Z,86.46
2023-02-19T16:01:37.453Z,85.71
2023-02-19T16:06:54.581Z,85.68
2023-02-19T16:11:58.260Z,85.46
2023-02-19T16:17:11.933Z,86.11
2023-02-19T16:22:16.355Z,86.20
2023-02-19T16:27:38.018Z,85.97
2023-02-19T16:32:39.925Z,87.03
2023-02-19T16:37:59.082Z,86.60
2023-02-19T16:43:12.998Z,86.50
2023-02-19T16:48:15.379Z,87.37
2023-02-19T16:53:20.574Z,87.92
2023-02-19T16:58:23.160Z,87.59
2023-02-19T17:03:25.087Z,87.43
2023-02-19T17:08:33.156Z,88.14
2023-02-19T17:13:35.609Z,88.23
2023-02-19T17:18:37.572Z,89.48
2023-02-19T17:23:39.561Z,89.49
2023-02-19T17:28:41.624Z,89.59
2023-02-19T17:33:44.002Z,89.56
2023-02-19T17:38:45.715Z,90.40
2023-02-19T17:43:47.650Z,90.44
2023-02-19T17:48:49.970Z,91.13
2023-02-19T17:53:51.950Z,91.18
2023-02-19T17:58:54.866Z,90.48
2023-02-19T18:03:56.914Z,91.03
2023-02-19T18:08:58.821Z,91.15
2023-02-19T18:14:00.817Z,90.98
2023-02-19T18:19:02.698Z,91.64
2023-02-19T18:24:04.959Z,91.14
2023-02-19T18:29:06.834Z,91.47
2023-02-19T18:34:16.082Z,91.15
2023-02-19T18:39:17.973Z,91.06
2023-02-19T18:44:21.141Z,90.43
2023-02-19T18:49:23.064Z,90.37
2023-02-19T18:54:25.190Z,90.65
2023-02-19T18:59:27.204Z,90.38
2023-02-19T19:04:29.353Z,91.22
2023-02-19T19:09:31.424Z,91.06
2023-02-19T19:14:33.426Z,91.56
2023-02-19T19:19:35.292Z,91.13
2023-02-19T19:24:37.260Z,91.60
2023-02-19T19:29:39.207Z,91.51
2023-02-19T19:34:41.307Z,91.21
2023-02-19T19:39:43.612Z,91.21
2023-02-19T19:44:45.578Z,91.20
2023-02-19T19:49:47.515Z,91.37
2023-02-19T19:54:49.409Z,90.99
2023-02-19T19:59:51.478Z,91.24
2023-02-19T20:04:53.370Z,91.13
2023-02-19T20:09:55.300Z,91.02
2023-02-19T20:14:57.275Z,90.95
2023-02-19T20:19:59.159Z,91.63
2023-02-19T20:25:01.171Z,91.44
2023-02-19T20:30:03.794Z,92.00
2023-02-19T20:35:06.594Z,91.06
2023-02-19T20:40:08.632Z,90.90
2023-02-19T20:45:10.624Z,91.44
2023-02-19T20:50:12.631Z,92.20
2023-02-19T20:55:14.457Z,92.28
2023-02-19T21:00:16.838Z,92.48
2023-02-19T21:05:18.563Z,92.84
2023-02-19T21:10:20.456Z,92.82
2023-02-19T21:15:22.749Z,92.66
2023-02-19T21:20:24.574Z,92.67
2023-02-19T21:25:26.736Z,93.71
2023-02-19T21:30:30.006Z,93.48
2023-02-19T21:35:31.978Z,93.14
2023-02-19T21:40:33.804Z,93.49
2023-02-19T21:45:35.744Z,93.49
2023-02-19T21:50:37.656Z,93.57
2023-02-19T21:55:41.126Z,93.34
2023-02-19T22:00:44.770Z,92.96
2023-02-19T22:05:46.734Z,92.99
2023-02-19T22:10:48.606Z,92.92
2023-02-19T22:15:50.479Z,92.65
2023-02-19T22:20:52.431Z,92.27
2023-02-19T22:25:54.417Z,91.68
2023-02-19T22:30:56.333Z,91.14
2023-02-19T22:35:58.415Z,91.03
2023-02-19T22:41:00.367Z,91.45
2023-02-19T22:46:02.525Z,91.24
2023-02-19T22:51:04.502Z,91.86
2023-02-19T22:56:06.548Z,92.49
2023-02-19T23:01:09.228Z,92.26
2023-02-19T23:06:11.442Z,91.56
2023-02-19T23:11:13.579Z,91.70
2023-02-19T23:16:15.955Z,91.79
2023-02-19T23:21:17.656Z,91.54
2023-02-19T23:26:19.735Z,92.40
2023-02-19T23:31:21.753Z,91.87
2023-02-19T23:36:23.705Z,92.66
2023-02-19T23:41:25.633Z,92.00
2023-02-19T23:46:27.606Z,92.01
2023-02-19T23:51:29.577Z,92.00
2023-02-19T23:56:31.640Z,92.14
